Crestwood, Missouri
Current Conditions -  °F | °C
As of 6:53 PM on Sunday 21 Dec 2014 (Local Time) from KCPS Reporting Station
Overcast Overcast  
Wind Chill: 36°   Ceiling: 3900
Heat Index: 42°   Visibility: 10mi
Dew Point: 32°   Wind: 10mph
Humidity: 67%   Direction: 150°SSE
Pressure: 30.02"   Gusts: NA
Location:  38.5502°N, 90.379°W
Report Text: KCPS 220053Z 15009KT 10SM OVC039 06/00 A3002 RMK AO2 SLP168 T00560000
Loading
Personal Weather Stations






























Interactive Weather Map New forecast layout! Learn more

10-Day Weather Forecast

Advertisements
Track Severe Weather on mobile